sensor_id;sensor_type;location;lat;lon;timestamp;P1;durP1;ratioP1;P2;durP2;ratioP2
60492;SDS011;46341;51.290;-2.474;2022-12-18T00:01:00;26.98;;;17.17;;
60492;SDS011;46341;51.290;-2.474;2022-12-18T00:03:29;24.98;;;16.17;;
60492;SDS011;46341;51.290;-2.474;2022-12-18T00:05:55;23.55;;;16.85;;
60492;SDS011;46341;51.290;-2.474;2022-12-18T00:08:21;24.30;;;16.33;;
60492;SDS011;46341;51.290;-2.474;2022-12-18T00:10:48;25.10;;;15.00;;
60492;SDS011;46341;51.290;-2.474;2022-12-18T00:13:14;20.45;;;14.48;;
60492;SDS011;46341;51.290;-2.474;2022-12-18T00:15:41;17.88;;;12.93;;
60492;SDS011;46341;51.290;-2.474;2022-12-18T00:18:07;20.05;;;13.45;;
60492;SDS011;46341;51.290;-2.474;2022-12-18T00:20:37;18.00;;;13.25;;
60492;SDS011;46341;51.290;-2.474;2022-12-18T00:23:04;18.60;;;13.13;;
60492;SDS011;46341;51.290;-2.474;2022-12-18T00:25:34;18.35;;;13.13;;
60492;SDS011;46341;51.290;-2.474;2022-12-18T00:28:02;18.70;;;13.23;;
60492;SDS011;46341;51.290;-2.474;2022-12-18T00:30:29;17.98;;;13.60;;
60492;SDS011;46341;51.290;-2.474;2022-12-18T00:32:56;17.08;;;12.43;;
60492;SDS011;46341;51.290;-2.474;2022-12-18T00:35:23;16.30;;;12.20;;
60492;SDS011;46341;51.290;-2.474;2022-12-18T00:37:49;17.45;;;12.50;;
60492;SDS011;46341;51.290;-2.474;2022-12-18T00:40:15;14.63;;;12.38;;
60492;SDS011;46341;51.290;-2.474;2022-12-18T00:42:42;13.98;;;12.00;;
60492;SDS011;46341;51.290;-2.474;2022-12-18T00:45:32;18.42;;;12.82;;
60492;SDS011;46341;51.290;-2.474;2022-12-18T00:47:59;15.10;;;12.68;;
60492;SDS011;46341;51.290;-2.474;2022-12-18T00:50:25;17.60;;;12.38;;
60492;SDS011;46341;51.290;-2.474;2022-12-18T00:52:51;18.35;;;12.60;;
60492;SDS011;46341;51.290;-2.474;2022-12-18T00:55:18;17.55;;;13.48;;
60492;SDS011;46341;51.290;-2.474;2022-12-18T00:57:44;18.35;;;12.85;;
60492;SDS011;46341;51.290;-2.474;2022-12-18T01:00:13;19.88;;;13.35;;
60492;SDS011;46341;51.290;-2.474;2022-12-18T01:02:40;22.10;;;13.32;;
60492;SDS011;46341;51.290;-2.474;2022-12-18T01:05:07;17.75;;;12.35;;
60492;SDS011;46341;51.290;-2.474;2022-12-18T01:07:34;15.80;;;11.57;;
60492;SDS011;46341;51.290;-2.474;2022-12-18T01:10:00;16.25;;;12.32;;
60492;SDS011;46341;51.290;-2.474;2022-12-18T01:12:26;17.33;;;11.88;;
60492;SDS011;46341;51.290;-2.474;2022-12-18T01:14:53;18.55;;;12.13;;
60492;SDS011;46341;51.290;-2.474;2022-12-18T01:17:19;20.52;;;12.43;;
60492;SDS011;46341;51.290;-2.474;2022-12-18T01:19:45;17.35;;;12.48;;
60492;SDS011;46341;51.290;-2.474;2022-12-18T01:22:12;19.08;;;12.60;;
60492;SDS011;46341;51.290;-2.474;2022-12-18T01:24:38;17.33;;;12.32;;
60492;SDS011;46341;51.290;-2.474;2022-12-18T01:27:05;18.35;;;13.25;;
60492;SDS011;46341;51.290;-2.474;2022-12-18T01:29:31;19.75;;;12.98;;
60492;SDS011;46341;51.290;-2.474;2022-12-18T01:31:57;19.30;;;13.10;;
60492;SDS011;46341;51.290;-2.474;2022-12-18T01:34:24;18.90;;;13.02;;
60492;SDS011;46341;51.290;-2.474;2022-12-18T01:36:50;18.42;;;12.50;;
60492;SDS011;46341;51.290;-2.474;2022-12-18T01:39:19;18.02;;;13.25;;
60492;SDS011;46341;51.290;-2.474;2022-12-18T01:41:46;18.77;;;13.00;;
60492;SDS011;46341;51.290;-2.474;2022-12-18T01:47:56;21.95;;;13.27;;
60492;SDS011;46341;51.290;-2.474;2022-12-18T01:50:24;19.38;;;12.85;;
60492;SDS011;46341;51.290;-2.474;2022-12-18T01:52:56;16.63;;;12.75;;
60492;SDS011;46341;51.290;-2.474;2022-12-18T01:55:25;22.42;;;13.35;;
60492;SDS011;46341;51.290;-2.474;2022-12-18T02:00:19;20.33;;;13.02;;
60492;SDS011;46341;51.290;-2.474;2022-12-18T02:02:46;20.23;;;14.52;;
60492;SDS011;46341;51.290;-2.474;2022-12-18T02:05:15;29.92;;;14.45;;
60492;SDS011;46341;51.290;-2.474;2022-12-18T02:08:04;27.58;;;14.88;;
60492;SDS011;46341;51.290;-2.474;2022-12-18T02:13:20;23.05;;;12.70;;
60492;SDS011;46341;51.290;-2.474;2022-12-18T02:15:56;22.88;;;13.18;;
60492;SDS011;46341;51.290;-2.474;2022-12-18T02:18:33;23.52;;;13.13;;
60492;SDS011;46341;51.290;-2.474;2022-12-18T02:23:36;26.17;;;14.50;;
60492;SDS011;46341;51.290;-2.474;2022-12-18T02:28:41;23.27;;;13.38;;
60492;SDS011;46341;51.290;-2.474;2022-12-18T02:31:11;23.23;;;13.55;;
60492;SDS011;46341;51.290;-2.474;2022-12-18T02:33:40;20.50;;;11.15;;
60492;SDS011;46341;51.290;-2.474;2022-12-18T02:36:07;14.75;;;9.75;;
60492;SDS011;46341;51.290;-2.474;2022-12-18T02:38:34;19.80;;;11.57;;
60492;SDS011;46341;51.290;-2.474;2022-12-18T02:41:01;16.65;;;11.27;;
60492;SDS011;46341;51.290;-2.474;2022-12-18T02:43:28;14.68;;;10.30;;
60492;SDS011;46341;51.290;-2.474;2022-12-18T02:45:56;21.30;;;11.63;;
60492;SDS011;46341;51.290;-2.474;2022-12-18T02:51:04;15.55;;;9.82;;
60492;SDS011;46341;51.290;-2.474;2022-12-18T02:53:41;14.75;;;10.57;;
60492;SDS011;46341;51.290;-2.474;2022-12-18T03:06:10;21.08;;;12.07;;
60492;SDS011;46341;51.290;-2.474;2022-12-18T03:08:43;18.50;;;11.73;;
60492;SDS011;46341;51.290;-2.474;2022-12-18T03:11:11;19.30;;;11.65;;
60492;SDS011;46341;51.290;-2.474;2022-12-18T03:13:39;19.98;;;11.50;;
60492;SDS011;46341;51.290;-2.474;2022-12-18T03:16:08;21.90;;;11.75;;
60492;SDS011;46341;51.290;-2.474;2022-12-18T03:18:37;19.17;;;11.25;;
60492;SDS011;46341;51.290;-2.474;2022-12-18T03:21:05;17.10;;;10.05;;
60492;SDS011;46341;51.290;-2.474;2022-12-18T03:23:33;21.83;;;12.10;;
60492;SDS011;46341;51.290;-2.474;2022-12-18T03:26:01;21.70;;;12.27;;
60492;SDS011;46341;51.290;-2.474;2022-12-18T03:28:33;26.50;;;14.68;;
60492;SDS011;46341;51.290;-2.474;2022-12-18T03:31:01;26.58;;;14.88;;
60492;SDS011;46341;51.290;-2.474;2022-12-18T03:33:32;29.58;;;14.38;;
60492;SDS011;46341;51.290;-2.474;2022-12-18T03:36:01;26.48;;;15.00;;
60492;SDS011;46341;51.290;-2.474;2022-12-18T03:38:28;22.17;;;13.63;;
60492;SDS011;46341;51.290;-2.474;2022-12-18T03:46:17;18.40;;;11.10;;
60492;SDS011;46341;51.290;-2.474;2022-12-18T03:48:46;20.00;;;12.02;;
60492;SDS011;46341;51.290;-2.474;2022-12-18T03:51:18;18.67;;;11.18;;
60492;SDS011;46341;51.290;-2.474;2022-12-18T03:53:52;16.92;;;11.07;;
60492;SDS011;46341;51.290;-2.474;2022-12-18T03:56:21;15.48;;;9.35;;
60492;SDS011;46341;51.290;-2.474;2022-12-18T03:58:47;13.45;;;8.40;;
60492;SDS011;46341;51.290;-2.474;2022-12-18T04:01:15;15.30;;;9.13;;
60492;SDS011;46341;51.290;-2.474;2022-12-18T04:03:42;17.17;;;9.02;;
60492;SDS011;46341;51.290;-2.474;2022-12-18T04:06:11;14.65;;;8.85;;
60492;SDS011;46341;51.290;-2.474;2022-12-18T04:08:37;13.85;;;8.73;;
60492;SDS011;46341;51.290;-2.474;2022-12-18T04:11:06;15.38;;;8.93;;
60492;SDS011;46341;51.290;-2.474;2022-12-18T04:13:33;14.70;;;9.13;;
60492;SDS011;46341;51.290;-2.474;2022-12-18T04:16:00;13.98;;;9.18;;
60492;SDS011;46341;51.290;-2.474;2022-12-18T04:18:27;16.70;;;9.65;;
60492;SDS011;46341;51.290;-2.474;2022-12-18T04:20:53;18.77;;;10.73;;
60492;SDS011;46341;51.290;-2.474;2022-12-18T04:23:20;18.30;;;9.50;;
60492;SDS011;46341;51.290;-2.474;2022-12-18T04:25:47;19.92;;;10.75;;
60492;SDS011;46341;51.290;-2.474;2022-12-18T04:28:14;17.13;;;10.98;;
60492;SDS011;46341;51.290;-2.474;2022-12-18T04:30:40;19.20;;;10.73;;
60492;SDS011;46341;51.290;-2.474;2022-12-18T04:33:10;17.23;;;9.98;;
60492;SDS011;46341;51.290;-2.474;2022-12-18T04:35:37;18.63;;;10.07;;
60492;SDS011;46341;51.290;-2.474;2022-12-18T04:38:03;17.42;;;10.73;;
60492;SDS011;46341;51.290;-2.474;2022-12-18T04:40:31;16.55;;;10.10;;
60492;SDS011;46341;51.290;-2.474;2022-12-18T04:42:57;19.40;;;10.50;;
60492;SDS011;46341;51.290;-2.474;2022-12-18T04:45:24;16.75;;;10.85;;
60492;SDS011;46341;51.290;-2.474;2022-12-18T04:47:50;22.80;;;11.50;;
60492;SDS011;46341;51.290;-2.474;2022-12-18T04:50:16;20.17;;;10.85;;
60492;SDS011;46341;51.290;-2.474;2022-12-18T04:52:43;21.00;;;10.60;;
60492;SDS011;46341;51.290;-2.474;2022-12-18T04:55:09;20.08;;;9.90;;
60492;SDS011;46341;51.290;-2.474;2022-12-18T04:57:36;16.40;;;9.55;;
60492;SDS011;46341;51.290;-2.474;2022-12-18T05:00:02;18.02;;;10.07;;
60492;SDS011;46341;51.290;-2.474;2022-12-18T05:02:29;22.83;;;13.73;;
60492;SDS011;46341;51.290;-2.474;2022-12-18T05:04:55;15.73;;;10.35;;
60492;SDS011;46341;51.290;-2.474;2022-12-18T05:07:21;19.13;;;11.15;;
60492;SDS011;46341;51.290;-2.474;2022-12-18T05:09:48;18.73;;;10.88;;
60492;SDS011;46341;51.290;-2.474;2022-12-18T05:12:14;22.23;;;11.48;;
60492;SDS011;46341;51.290;-2.474;2022-12-18T05:14:41;18.83;;;11.00;;
60492;SDS011;46341;51.290;-2.474;2022-12-18T05:17:07;16.20;;;9.70;;
60492;SDS011;46341;51.290;-2.474;2022-12-18T05:19:33;15.32;;;9.32;;
60492;SDS011;46341;51.290;-2.474;2022-12-18T05:22:00;18.60;;;9.00;;
60492;SDS011;46341;51.290;-2.474;2022-12-18T05:24:27;17.30;;;8.13;;
60492;SDS011;46341;51.290;-2.474;2022-12-18T05:26:53;14.45;;;8.13;;
60492;SDS011;46341;51.290;-2.474;2022-12-18T05:29:20;12.10;;;7.40;;
60492;SDS011;46341;51.290;-2.474;2022-12-18T05:31:46;12.70;;;7.43;;
60492;SDS011;46341;51.290;-2.474;2022-12-18T05:34:13;15.65;;;7.40;;
60492;SDS011;46341;51.290;-2.474;2022-12-18T05:36:39;12.70;;;7.82;;
60492;SDS011;46341;51.290;-2.474;2022-12-18T05:39:06;13.48;;;7.75;;
60492;SDS011;46341;51.290;-2.474;2022-12-18T05:41:33;12.10;;;7.20;;
60492;SDS011;46341;51.290;-2.474;2022-12-18T05:43:59;12.30;;;7.40;;
60492;SDS011;46341;51.290;-2.474;2022-12-18T05:46:26;13.07;;;7.53;;
60492;SDS011;46341;51.290;-2.474;2022-12-18T05:48:52;12.80;;;7.82;;
60492;SDS011;46341;51.290;-2.474;2022-12-18T05:51:20;11.48;;;6.80;;
60492;SDS011;46341;51.290;-2.474;2022-12-18T05:56:17;13.57;;;7.60;;
60492;SDS011;46341;51.290;-2.474;2022-12-18T05:58:44;14.85;;;7.72;;
60492;SDS011;46341;51.290;-2.474;2022-12-18T06:03:37;13.15;;;7.93;;
60492;SDS011;46341;51.290;-2.474;2022-12-18T06:06:03;16.08;;;8.48;;
60492;SDS011;46341;51.290;-2.474;2022-12-18T06:08:30;12.98;;;8.45;;
60492;SDS011;46341;51.290;-2.474;2022-12-18T06:10:57;15.27;;;8.18;;
60492;SDS011;46341;51.290;-2.474;2022-12-18T06:13:23;15.43;;;8.77;;
60492;SDS011;46341;51.290;-2.474;2022-12-18T06:15:49;13.05;;;8.57;;
60492;SDS011;46341;51.290;-2.474;2022-12-18T06:18:16;14.48;;;8.75;;
60492;SDS011;46341;51.290;-2.474;2022-12-18T06:20:42;16.13;;;8.95;;
60492;SDS011;46341;51.290;-2.474;2022-12-18T06:23:09;16.83;;;9.55;;
60492;SDS011;46341;51.290;-2.474;2022-12-18T06:25:37;16.15;;;9.80;;
60492;SDS011;46341;51.290;-2.474;2022-12-18T06:30:29;19.75;;;9.75;;
60492;SDS011;46341;51.290;-2.474;2022-12-18T06:32:56;20.38;;;10.63;;
60492;SDS011;46341;51.290;-2.474;2022-12-18T06:35:23;18.98;;;10.73;;
60492;SDS011;46341;51.290;-2.474;2022-12-18T06:37:49;19.42;;;10.77;;
60492;SDS011;46341;51.290;-2.474;2022-12-18T06:40:16;20.48;;;11.63;;
60492;SDS011;46341;51.290;-2.474;2022-12-18T06:42:42;18.55;;;10.57;;
60492;SDS011;46341;51.290;-2.474;2022-12-18T06:45:09;18.85;;;10.65;;
60492;SDS011;46341;51.290;-2.474;2022-12-18T06:47:35;19.45;;;10.52;;
60492;SDS011;46341;51.290;-2.474;2022-12-18T06:50:02;20.73;;;10.80;;
60492;SDS011;46341;51.290;-2.474;2022-12-18T06:52:28;18.63;;;10.90;;
60492;SDS011;46341;51.290;-2.474;2022-12-18T06:54:57;17.55;;;10.93;;
60492;SDS011;46341;51.290;-2.474;2022-12-18T06:57:23;16.50;;;10.57;;
60492;SDS011;46341;51.290;-2.474;2022-12-18T06:59:50;18.45;;;10.48;;
60492;SDS011;46341;51.290;-2.474;2022-12-18T07:02:16;17.00;;;10.07;;
60492;SDS011;46341;51.290;-2.474;2022-12-18T07:04:43;18.02;;;10.55;;
60492;SDS011;46341;51.290;-2.474;2022-12-18T07:07:10;18.55;;;10.80;;
60492;SDS011;46341;51.290;-2.474;2022-12-18T07:09:36;19.75;;;10.95;;
60492;SDS011;46341;51.290;-2.474;2022-12-18T07:12:02;18.45;;;10.88;;
60492;SDS011;46341;51.290;-2.474;2022-12-18T07:14:31;20.50;;;10.75;;
60492;SDS011;46341;51.290;-2.474;2022-12-18T07:16:57;20.40;;;10.60;;
60492;SDS011;46341;51.290;-2.474;2022-12-18T07:19:25;19.35;;;10.38;;
60492;SDS011;46341;51.290;-2.474;2022-12-18T07:21:51;17.88;;;10.32;;
60492;SDS011;46341;51.290;-2.474;2022-12-18T07:24:18;15.23;;;9.23;;
60492;SDS011;46341;51.290;-2.474;2022-12-18T07:26:47;15.48;;;10.05;;
60492;SDS011;46341;51.290;-2.474;2022-12-18T07:29:13;17.33;;;8.57;;
60492;SDS011;46341;51.290;-2.474;2022-12-18T07:31:40;16.90;;;8.80;;
60492;SDS011;46341;51.290;-2.474;2022-12-18T07:34:09;14.38;;;8.38;;
60492;SDS011;46341;51.290;-2.474;2022-12-18T07:36:36;18.13;;;9.05;;
60492;SDS011;46341;51.290;-2.474;2022-12-18T07:39:02;15.43;;;8.15;;
60492;SDS011;46341;51.290;-2.474;2022-12-18T07:41:29;14.07;;;8.25;;
60492;SDS011;46341;51.290;-2.474;2022-12-18T07:43:55;14.05;;;8.30;;
60492;SDS011;46341;51.290;-2.474;2022-12-18T07:46:22;12.27;;;8.20;;
60492;SDS011;46341;51.290;-2.474;2022-12-18T07:48:48;13.48;;;8.13;;
60492;SDS011;46341;51.290;-2.474;2022-12-18T07:51:15;18.13;;;9.90;;
60492;SDS011;46341;51.290;-2.474;2022-12-18T07:53:43;13.63;;;8.52;;
60492;SDS011;46341;51.290;-2.474;2022-12-18T07:56:10;14.02;;;8.65;;
60492;SDS011;46341;51.290;-2.474;2022-12-18T07:58:55;15.10;;;8.93;;
60492;SDS011;46341;51.290;-2.474;2022-12-18T08:01:21;17.15;;;8.68;;
60492;SDS011;46341;51.290;-2.474;2022-12-18T08:03:48;15.35;;;8.50;;
60492;SDS011;46341;51.290;-2.474;2022-12-18T08:06:17;12.98;;;8.45;;
60492;SDS011;46341;51.290;-2.474;2022-12-18T08:08:43;16.65;;;9.07;;
60492;SDS011;46341;51.290;-2.474;2022-12-18T08:11:09;13.38;;;9.30;;
60492;SDS011;46341;51.290;-2.474;2022-12-18T08:13:36;13.77;;;9.27;;
60492;SDS011;46341;51.290;-2.474;2022-12-18T08:16:04;13.73;;;8.68;;
60492;SDS011;46341;51.290;-2.474;2022-12-18T08:18:34;15.00;;;9.43;;
60492;SDS011;46341;51.290;-2.474;2022-12-18T08:21:11;14.27;;;9.50;;
60492;SDS011;46341;51.290;-2.474;2022-12-18T08:23:37;15.68;;;9.25;;
60492;SDS011;46341;51.290;-2.474;2022-12-18T08:26:08;13.00;;;9.40;;
60492;SDS011;46341;51.290;-2.474;2022-12-18T08:28:34;15.27;;;9.55;;
60492;SDS011;46341;51.290;-2.474;2022-12-18T08:31:01;16.85;;;10.02;;
60492;SDS011;46341;51.290;-2.474;2022-12-18T08:35:55;16.52;;;10.52;;
60492;SDS011;46341;51.290;-2.474;2022-12-18T08:38:21;16.80;;;10.85;;
60492;SDS011;46341;51.290;-2.474;2022-12-18T08:40:49;16.98;;;10.65;;
60492;SDS011;46341;51.290;-2.474;2022-12-18T08:43:15;21.45;;;11.80;;
60492;SDS011;46341;51.290;-2.474;2022-12-18T08:46:00;16.30;;;10.18;;
60492;SDS011;46341;51.290;-2.474;2022-12-18T08:48:27;17.98;;;9.98;;
60492;SDS011;46341;51.290;-2.474;2022-12-18T08:50:57;18.42;;;11.05;;
60492;SDS011;46341;51.290;-2.474;2022-12-18T08:53:24;21.52;;;11.80;;
60492;SDS011;46341;51.290;-2.474;2022-12-18T08:55:50;19.67;;;11.63;;
60492;SDS011;46341;51.290;-2.474;2022-12-18T08:58:17;18.90;;;11.13;;
60492;SDS011;46341;51.290;-2.474;2022-12-18T09:00:43;21.35;;;11.48;;
60492;SDS011;46341;51.290;-2.474;2022-12-18T09:03:11;20.77;;;12.13;;
60492;SDS011;46341;51.290;-2.474;2022-12-18T09:05:38;22.50;;;11.80;;
60492;SDS011;46341;51.290;-2.474;2022-12-18T09:08:04;18.88;;;12.02;;
60492;SDS011;46341;51.290;-2.474;2022-12-18T09:10:31;21.30;;;12.63;;
60492;SDS011;46341;51.290;-2.474;2022-12-18T09:12:57;22.20;;;13.10;;
60492;SDS011;46341;51.290;-2.474;2022-12-18T09:15:23;21.10;;;12.93;;
60492;SDS011;46341;51.290;-2.474;2022-12-18T09:17:50;24.13;;;13.38;;
60492;SDS011;46341;51.290;-2.474;2022-12-18T09:20:17;19.00;;;12.15;;
60492;SDS011;46341;51.290;-2.474;2022-12-18T09:22:43;21.73;;;13.07;;
60492;SDS011;46341;51.290;-2.474;2022-12-18T09:25:09;19.98;;;13.30;;
60492;SDS011;46341;51.290;-2.474;2022-12-18T09:27:36;20.60;;;12.85;;
60492;SDS011;46341;51.290;-2.474;2022-12-18T09:30:03;21.42;;;12.75;;
60492;SDS011;46341;51.290;-2.474;2022-12-18T09:32:29;23.23;;;13.40;;
60492;SDS011;46341;51.290;-2.474;2022-12-18T09:34:56;23.20;;;13.88;;
60492;SDS011;46341;51.290;-2.474;2022-12-18T09:37:22;19.92;;;14.60;;
60492;SDS011;46341;51.290;-2.474;2022-12-18T09:39:48;21.95;;;13.90;;
60492;SDS011;46341;51.290;-2.474;2022-12-18T09:42:19;23.88;;;14.82;;
60492;SDS011;46341;51.290;-2.474;2022-12-18T09:44:53;26.23;;;13.80;;
60492;SDS011;46341;51.290;-2.474;2022-12-18T09:47:27;20.65;;;13.45;;
60492;SDS011;46341;51.290;-2.474;2022-12-18T09:49:56;25.77;;;14.57;;
60492;SDS011;46341;51.290;-2.474;2022-12-18T09:54:53;22.95;;;14.18;;
60492;SDS011;46341;51.290;-2.474;2022-12-18T09:57:21;21.67;;;13.05;;
60492;SDS011;46341;51.290;-2.474;2022-12-18T10:00:14;24.65;;;14.65;;
60492;SDS011;46341;51.290;-2.474;2022-12-18T10:02:35;23.58;;;14.65;;
60492;SDS011;46341;51.290;-2.474;2022-12-18T10:07:34;22.70;;;13.98;;
60492;SDS011;46341;51.290;-2.474;2022-12-18T10:12:57;23.73;;;14.52;;
60492;SDS011;46341;51.290;-2.474;2022-12-18T10:15:53;25.05;;;14.63;;
60492;SDS011;46341;51.290;-2.474;2022-12-18T10:20:57;25.45;;;15.63;;
60492;SDS011;46341;51.290;-2.474;2022-12-18T10:25:59;21.02;;;14.32;;
60492;SDS011;46341;51.290;-2.474;2022-12-18T10:28:27;23.55;;;15.95;;
60492;SDS011;46341;51.290;-2.474;2022-12-18T10:30:55;26.45;;;16.90;;
60492;SDS011;46341;51.290;-2.474;2022-12-18T10:33:22;29.10;;;16.27;;
60492;SDS011;46341;51.290;-2.474;2022-12-18T10:35:53;28.30;;;16.13;;
60492;SDS011;46341;51.290;-2.474;2022-12-18T10:38:24;30.50;;;16.70;;
60492;SDS011;46341;51.290;-2.474;2022-12-18T10:43:22;26.10;;;15.45;;
60492;SDS011;46341;51.290;-2.474;2022-12-18T10:46:31;24.50;;;16.27;;
60492;SDS011;46341;51.290;-2.474;2022-12-18T10:51:06;24.83;;;15.50;;
60492;SDS011;46341;51.290;-2.474;2022-12-18T10:53:38;24.48;;;16.08;;
60492;SDS011;46341;51.290;-2.474;2022-12-18T10:56:06;27.05;;;16.15;;
60492;SDS011;46341;51.290;-2.474;2022-12-18T10:58:33;25.42;;;16.30;;
60492;SDS011;46341;51.290;-2.474;2022-12-18T11:01:11;27.52;;;15.73;;
60492;SDS011;46341;51.290;-2.474;2022-12-18T11:03:39;26.38;;;16.45;;
60492;SDS011;46341;51.290;-2.474;2022-12-18T11:08:35;28.38;;;16.48;;
60492;SDS011;46341;51.290;-2.474;2022-12-18T11:11:03;27.15;;;17.33;;
60492;SDS011;46341;51.290;-2.474;2022-12-18T11:13:30;27.60;;;15.55;;
60492;SDS011;46341;51.290;-2.474;2022-12-18T11:15:57;29.25;;;16.65;;
60492;SDS011;46341;51.290;-2.474;2022-12-18T11:18:34;26.73;;;16.98;;
60492;SDS011;46341;51.290;-2.474;2022-12-18T11:21:07;26.08;;;16.17;;
60492;SDS011;46341;51.290;-2.474;2022-12-18T11:23:35;27.00;;;16.13;;
60492;SDS011;46341;51.290;-2.474;2022-12-18T11:26:03;28.00;;;17.90;;
60492;SDS011;46341;51.290;-2.474;2022-12-18T11:33:42;41.22;;;25.60;;
60492;SDS011;46341;51.290;-2.474;2022-12-18T11:36:34;41.50;;;25.92;;
60492;SDS011;46341;51.290;-2.474;2022-12-18T11:39:07;45.70;;;27.70;;
60492;SDS011;46341;51.290;-2.474;2022-12-18T11:41:41;37.65;;;24.02;;
60492;SDS011;46341;51.290;-2.474;2022-12-18T11:44:54;32.72;;;20.38;;
60492;SDS011;46341;51.290;-2.474;2022-12-18T11:49:51;30.88;;;18.20;;
60492;SDS011;46341;51.290;-2.474;2022-12-18T11:52:19;29.20;;;18.73;;
60492;SDS011;46341;51.290;-2.474;2022-12-18T11:54:51;28.83;;;18.05;;
60492;SDS011;46341;51.290;-2.474;2022-12-18T12:05:26;25.50;;;15.85;;
60492;SDS011;46341;51.290;-2.474;2022-12-18T12:07:51;24.15;;;15.75;;
60492;SDS011;46341;51.290;-2.474;2022-12-18T12:10:33;24.52;;;16.15;;
60492;SDS011;46341;51.290;-2.474;2022-12-18T12:36:22;18.92;;;12.52;;
60492;SDS011;46341;51.290;-2.474;2022-12-18T12:38:54;18.17;;;12.35;;
60492;SDS011;46341;51.290;-2.474;2022-12-18T12:41:23;17.58;;;11.82;;
60492;SDS011;46341;51.290;-2.474;2022-12-18T12:46:37;17.08;;;10.68;;
60492;SDS011;46341;51.290;-2.474;2022-12-18T12:49:18;13.75;;;10.30;;
60492;SDS011;46341;51.290;-2.474;2022-12-18T12:51:51;16.52;;;10.30;;
60492;SDS011;46341;51.290;-2.474;2022-12-18T12:54:21;17.20;;;11.13;;
60492;SDS011;46341;51.290;-2.474;2022-12-18T12:57:00;14.95;;;10.65;;
60492;SDS011;46341;51.290;-2.474;2022-12-18T13:01:59;12.50;;;9.52;;
60492;SDS011;46341;51.290;-2.474;2022-12-18T13:09:22;12.13;;;7.70;;
60492;SDS011;46341;51.290;-2.474;2022-12-18T13:11:49;8.93;;;7.05;;
60492;SDS011;46341;51.290;-2.474;2022-12-18T13:14:34;7.93;;;6.45;;
60492;SDS011;46341;51.290;-2.474;2022-12-18T13:19:43;6.95;;;5.68;;
60492;SDS011;46341;51.290;-2.474;2022-12-18T13:22:23;6.80;;;5.68;;
60492;SDS011;46341;51.290;-2.474;2022-12-18T13:24:50;6.82;;;5.53;;
60492;SDS011;46341;51.290;-2.474;2022-12-18T13:30:02;7.45;;;4.82;;
60492;SDS011;46341;51.290;-2.474;2022-12-18T13:32:44;7.60;;;4.90;;
60492;SDS011;46341;51.290;-2.474;2022-12-18T13:37:51;4.78;;;4.13;;
60492;SDS011;46341;51.290;-2.474;2022-12-18T13:43:13;4.07;;;3.67;;
60492;SDS011;46341;51.290;-2.474;2022-12-18T13:45:41;4.83;;;3.37;;
60492;SDS011;46341;51.290;-2.474;2022-12-18T13:48:16;3.10;;;2.80;;
60492;SDS011;46341;51.290;-2.474;2022-12-18T13:50:43;3.45;;;2.72;;
60492;SDS011;46341;51.290;-2.474;2022-12-18T13:53:26;2.72;;;2.47;;
60492;SDS011;46341;51.290;-2.474;2022-12-18T13:55:54;3.33;;;2.83;;
60492;SDS011;46341;51.290;-2.474;2022-12-18T13:58:20;2.45;;;2.25;;
60492;SDS011;46341;51.290;-2.474;2022-12-18T14:00:47;4.55;;;2.90;;
60492;SDS011;46341;51.290;-2.474;2022-12-18T14:03:16;2.55;;;2.25;;
60492;SDS011;46341;51.290;-2.474;2022-12-18T14:05:52;2.80;;;2.55;;
60492;SDS011;46341;51.290;-2.474;2022-12-18T14:08:19;2.15;;;1.95;;
60492;SDS011;46341;51.290;-2.474;2022-12-18T14:10:47;2.30;;;2.10;;
60492;SDS011;46341;51.290;-2.474;2022-12-18T14:13:18;2.97;;;2.55;;
60492;SDS011;46341;51.290;-2.474;2022-12-18T14:15:46;2.72;;;2.17;;
60492;SDS011;46341;51.290;-2.474;2022-12-18T14:20:41;3.05;;;2.80;;
60492;SDS011;46341;51.290;-2.474;2022-12-18T14:23:32;3.53;;;2.33;;
60492;SDS011;46341;51.290;-2.474;2022-12-18T14:26:00;2.65;;;2.45;;
60492;SDS011;46341;51.290;-2.474;2022-12-18T14:28:31;3.00;;;2.70;;
60492;SDS011;46341;51.290;-2.474;2022-12-18T14:30:57;2.47;;;2.28;;
60492;SDS011;46341;51.290;-2.474;2022-12-18T14:33:25;2.53;;;2.33;;
60492;SDS011;46341;51.290;-2.474;2022-12-18T14:40:55;2.92;;;2.28;;
60492;SDS011;46341;51.290;-2.474;2022-12-18T14:43:21;3.20;;;2.22;;
60492;SDS011;46341;51.290;-2.474;2022-12-18T14:45:48;3.00;;;2.25;;
60492;SDS011;46341;51.290;-2.474;2022-12-18T14:50:55;2.72;;;2.20;;
60492;SDS011;46341;51.290;-2.474;2022-12-18T14:53:56;3.47;;;2.03;;
60492;SDS011;46341;51.290;-2.474;2022-12-18T14:56:21;2.05;;;1.80;;
60492;SDS011;46341;51.290;-2.474;2022-12-18T15:01:18;2.95;;;2.10;;
60492;SDS011;46341;51.290;-2.474;2022-12-18T15:03:44;2.00;;;1.80;;
60492;SDS011;46341;51.290;-2.474;2022-12-18T15:06:15;1.70;;;1.60;;
60492;SDS011;46341;51.290;-2.474;2022-12-18T15:08:42;2.17;;;2.00;;
60492;SDS011;46341;51.290;-2.474;2022-12-18T15:11:24;1.65;;;1.55;;
60492;SDS011;46341;51.290;-2.474;2022-12-18T15:13:51;1.92;;;1.67;;
60492;SDS011;46341;51.290;-2.474;2022-12-18T15:16:18;1.40;;;1.30;;
60492;SDS011;46341;51.290;-2.474;2022-12-18T15:18:44;1.73;;;1.63;;
60492;SDS011;46341;51.290;-2.474;2022-12-18T15:21:14;2.15;;;1.50;;
60492;SDS011;46341;51.290;-2.474;2022-12-18T15:23:46;3.90;;;1.73;;
60492;SDS011;46341;51.290;-2.474;2022-12-18T15:26:14;6.60;;;1.67;;
60492;SDS011;46341;51.290;-2.474;2022-12-18T15:28:59;3.83;;;1.98;;
60492;SDS011;46341;51.290;-2.474;2022-12-18T15:31:29;3.40;;;2.13;;
60492;SDS011;46341;51.290;-2.474;2022-12-18T15:36:27;3.15;;;1.77;;
60492;SDS011;46341;51.290;-2.474;2022-12-18T15:38:54;1.95;;;1.77;;
60492;SDS011;46341;51.290;-2.474;2022-12-18T15:41:31;1.83;;;1.73;;
60492;SDS011;46341;51.290;-2.474;2022-12-18T15:43:59;2.67;;;1.60;;
60492;SDS011;46341;51.290;-2.474;2022-12-18T15:46:25;4.18;;;1.77;;
60492;SDS011;46341;51.290;-2.474;2022-12-18T15:48:53;2.95;;;1.90;;
60492;SDS011;46341;51.290;-2.474;2022-12-18T15:51:28;1.95;;;1.70;;
60492;SDS011;46341;51.290;-2.474;2022-12-18T15:53:56;5.32;;;1.80;;
60492;SDS011;46341;51.290;-2.474;2022-12-18T15:56:22;2.90;;;1.90;;
60492;SDS011;46341;51.290;-2.474;2022-12-18T15:59:12;5.75;;;2.60;;
60492;SDS011;46341;51.290;-2.474;2022-12-18T16:01:39;3.80;;;1.95;;
60492;SDS011;46341;51.290;-2.474;2022-12-18T16:04:09;2.25;;;2.03;;
60492;SDS011;46341;51.290;-2.474;2022-12-18T16:06:36;2.63;;;2.25;;
60492;SDS011;46341;51.290;-2.474;2022-12-18T16:09:22;3.22;;;2.00;;
60492;SDS011;46341;51.290;-2.474;2022-12-18T16:11:51;2.85;;;2.10;;
60492;SDS011;46341;51.290;-2.474;2022-12-18T16:14:22;3.20;;;2.30;;
60492;SDS011;46341;51.290;-2.474;2022-12-18T16:16:50;3.13;;;2.35;;
60492;SDS011;46341;51.290;-2.474;2022-12-18T16:19:16;3.50;;;2.60;;
60492;SDS011;46341;51.290;-2.474;2022-12-18T16:21:43;3.80;;;2.42;;
60492;SDS011;46341;51.290;-2.474;2022-12-18T16:24:14;2.78;;;2.45;;
60492;SDS011;46341;51.290;-2.474;2022-12-18T16:26:42;4.13;;;2.65;;
60492;SDS011;46341;51.290;-2.474;2022-12-18T16:29:09;4.95;;;3.35;;
60492;SDS011;46341;51.290;-2.474;2022-12-18T16:38:03;4.32;;;3.03;;
60492;SDS011;46341;51.290;-2.474;2022-12-18T16:40:30;3.97;;;3.40;;
60492;SDS011;46341;51.290;-2.474;2022-12-18T16:42:57;4.47;;;3.28;;
60492;SDS011;46341;51.290;-2.474;2022-12-18T16:45:23;4.70;;;3.40;;
60492;SDS011;46341;51.290;-2.474;2022-12-18T16:47:59;3.90;;;3.20;;
60492;SDS011;46341;51.290;-2.474;2022-12-18T16:50:25;4.40;;;3.38;;